sensor_id;sensor_type;location;lat;lon;timestamp;P1;durP1;ratioP1;P2;durP2;ratioP2
20283;SDS011;10301;50.832;4.080;2023-10-09T00:00:31;13.27;;;8.05;;
20283;SDS011;10301;50.832;4.080;2023-10-09T00:03:03;15.38;;;7.88;;
20283;SDS011;10301;50.832;4.080;2023-10-09T00:05:32;13.73;;;8.25;;
20283;SDS011;10301;50.832;4.080;2023-10-09T00:08:10;15.65;;;8.65;;
20283;SDS011;10301;50.832;4.080;2023-10-09T00:10:55;16.55;;;7.90;;
20283;SDS011;10301;50.832;4.080;2023-10-09T00:13:42;14.15;;;7.70;;
20283;SDS011;10301;50.832;4.080;2023-10-09T00:16:16;14.88;;;8.18;;
20283;SDS011;10301;50.832;4.080;2023-10-09T00:18:47;17.20;;;9.30;;
20283;SDS011;10301;50.832;4.080;2023-10-09T00:21:16;14.45;;;8.60;;
20283;SDS011;10301;50.832;4.080;2023-10-09T00:23:45;16.08;;;8.30;;
20283;SDS011;10301;50.832;4.080;2023-10-09T00:26:24;14.75;;;8.27;;
20283;SDS011;10301;50.832;4.080;2023-10-09T00:28:50;15.55;;;8.65;;
20283;SDS011;10301;50.832;4.080;2023-10-09T00:31:17;15.82;;;8.40;;
20283;SDS011;10301;50.832;4.080;2023-10-09T00:33:53;14.30;;;7.80;;
20283;SDS011;10301;50.832;4.080;2023-10-09T00:36:19;15.02;;;8.40;;
20283;SDS011;10301;50.832;4.080;2023-10-09T00:38:53;19.17;;;9.00;;
20283;SDS011;10301;50.832;4.080;2023-10-09T00:41:19;16.45;;;8.55;;
20283;SDS011;10301;50.832;4.080;2023-10-09T00:43:48;14.80;;;8.20;;
20283;SDS011;10301;50.832;4.080;2023-10-09T00:46:15;16.30;;;8.77;;
20283;SDS011;10301;50.832;4.080;2023-10-09T00:48:49;15.30;;;8.57;;
20283;SDS011;10301;50.832;4.080;2023-10-09T00:51:24;17.05;;;8.95;;
20283;SDS011;10301;50.832;4.080;2023-10-09T00:53:53;14.00;;;8.63;;
20283;SDS011;10301;50.832;4.080;2023-10-09T00:56:22;17.63;;;9.07;;
20283;SDS011;10301;50.832;4.080;2023-10-09T00:58:55;16.92;;;8.90;;
20283;SDS011;10301;50.832;4.080;2023-10-09T01:01:32;18.42;;;9.60;;
20283;SDS011;10301;50.832;4.080;2023-10-09T01:04:04;18.27;;;9.95;;
20283;SDS011;10301;50.832;4.080;2023-10-09T01:06:36;17.45;;;9.52;;
20283;SDS011;10301;50.832;4.080;2023-10-09T01:09:09;16.98;;;10.50;;
20283;SDS011;10301;50.832;4.080;2023-10-09T01:11:39;17.10;;;9.23;;
20283;SDS011;10301;50.832;4.080;2023-10-09T01:14:35;15.15;;;9.15;;
20283;SDS011;10301;50.832;4.080;2023-10-09T01:17:02;14.82;;;9.45;;
20283;SDS011;10301;50.832;4.080;2023-10-09T01:19:35;15.25;;;8.77;;
20283;SDS011;10301;50.832;4.080;2023-10-09T01:22:01;16.10;;;10.07;;
20283;SDS011;10301;50.832;4.080;2023-10-09T01:24:37;19.77;;;8.95;;
20283;SDS011;10301;50.832;4.080;2023-10-09T01:27:04;16.00;;;9.50;;
20283;SDS011;10301;50.832;4.080;2023-10-09T01:29:36;16.38;;;10.05;;
20283;SDS011;10301;50.832;4.080;2023-10-09T01:32:02;16.15;;;10.02;;
20283;SDS011;10301;50.832;4.080;2023-10-09T01:34:29;15.82;;;9.48;;
20283;SDS011;10301;50.832;4.080;2023-10-09T01:37:16;16.30;;;9.30;;
20283;SDS011;10301;50.832;4.080;2023-10-09T01:39:46;19.85;;;9.57;;
20283;SDS011;10301;50.832;4.080;2023-10-09T01:42:16;16.75;;;10.38;;
20283;SDS011;10301;50.832;4.080;2023-10-09T01:44:54;18.73;;;10.48;;
20283;SDS011;10301;50.832;4.080;2023-10-09T01:47:20;16.58;;;9.25;;
20283;SDS011;10301;50.832;4.080;2023-10-09T01:49:47;15.63;;;9.73;;
20283;SDS011;10301;50.832;4.080;2023-10-09T01:52:18;16.77;;;9.35;;
20283;SDS011;10301;50.832;4.080;2023-10-09T01:54:47;17.60;;;9.55;;
20283;SDS011;10301;50.832;4.080;2023-10-09T01:57:17;16.52;;;9.35;;
20283;SDS011;10301;50.832;4.080;2023-10-09T01:59:47;15.38;;;8.85;;
20283;SDS011;10301;50.832;4.080;2023-10-09T02:02:15;17.77;;;9.25;;
20283;SDS011;10301;50.832;4.080;2023-10-09T02:04:51;15.18;;;8.88;;
20283;SDS011;10301;50.832;4.080;2023-10-09T02:07:40;18.13;;;10.90;;
20283;SDS011;10301;50.832;4.080;2023-10-09T02:10:06;15.80;;;8.80;;
20283;SDS011;10301;50.832;4.080;2023-10-09T02:12:51;15.27;;;8.73;;
20283;SDS011;10301;50.832;4.080;2023-10-09T02:15:22;14.18;;;8.60;;
20283;SDS011;10301;50.832;4.080;2023-10-09T02:18:19;17.38;;;8.77;;
20283;SDS011;10301;50.832;4.080;2023-10-09T02:20:52;13.63;;;8.65;;
20283;SDS011;10301;50.832;4.080;2023-10-09T02:23:29;15.27;;;8.60;;
20283;SDS011;10301;50.832;4.080;2023-10-09T02:26:17;14.98;;;9.13;;
20283;SDS011;10301;50.832;4.080;2023-10-09T02:29:06;19.02;;;8.98;;
20283;SDS011;10301;50.832;4.080;2023-10-09T02:31:51;16.38;;;8.70;;
20283;SDS011;10301;50.832;4.080;2023-10-09T02:34:17;17.48;;;10.68;;
20283;SDS011;10301;50.832;4.080;2023-10-09T02:36:47;16.85;;;9.95;;
20283;SDS011;10301;50.832;4.080;2023-10-09T02:39:23;19.30;;;10.50;;
20283;SDS011;10301;50.832;4.080;2023-10-09T02:41:52;21.23;;;9.90;;
20283;SDS011;10301;50.832;4.080;2023-10-09T02:44:25;16.92;;;9.50;;
20283;SDS011;10301;50.832;4.080;2023-10-09T02:46:51;16.70;;;9.93;;
20283;SDS011;10301;50.832;4.080;2023-10-09T02:49:22;18.33;;;10.52;;
20283;SDS011;10301;50.832;4.080;2023-10-09T02:51:49;19.40;;;11.32;;
20283;SDS011;10301;50.832;4.080;2023-10-09T02:54:18;18.23;;;10.52;;
20283;SDS011;10301;50.832;4.080;2023-10-09T02:57:00;18.05;;;10.80;;
20283;SDS011;10301;50.832;4.080;2023-10-09T02:59:41;17.38;;;10.02;;
20283;SDS011;10301;50.832;4.080;2023-10-09T03:02:07;18.42;;;13.23;;
20283;SDS011;10301;50.832;4.080;2023-10-09T03:04:33;16.20;;;10.63;;
20283;SDS011;10301;50.832;4.080;2023-10-09T03:07:02;18.20;;;11.23;;
20283;SDS011;10301;50.832;4.080;2023-10-09T03:09:29;20.38;;;11.35;;
20283;SDS011;10301;50.832;4.080;2023-10-09T03:12:00;19.45;;;11.65;;
20283;SDS011;10301;50.832;4.080;2023-10-09T03:14:35;23.02;;;11.57;;
20283;SDS011;10301;50.832;4.080;2023-10-09T03:17:03;19.23;;;10.45;;
20283;SDS011;10301;50.832;4.080;2023-10-09T03:19:30;16.90;;;10.25;;
20283;SDS011;10301;50.832;4.080;2023-10-09T03:22:02;18.38;;;10.77;;
20283;SDS011;10301;50.832;4.080;2023-10-09T03:24:37;18.50;;;11.10;;
20283;SDS011;10301;50.832;4.080;2023-10-09T03:27:05;24.33;;;10.95;;
20283;SDS011;10301;50.832;4.080;2023-10-09T03:29:30;20.02;;;11.27;;
20283;SDS011;10301;50.832;4.080;2023-10-09T03:31:56;18.60;;;11.18;;
20283;SDS011;10301;50.832;4.080;2023-10-09T03:34:22;18.58;;;10.85;;
20283;SDS011;10301;50.832;4.080;2023-10-09T03:36:49;22.25;;;11.07;;
20283;SDS011;10301;50.832;4.080;2023-10-09T03:39:24;20.10;;;11.73;;
20283;SDS011;10301;50.832;4.080;2023-10-09T03:42:03;22.38;;;11.70;;
20283;SDS011;10301;50.832;4.080;2023-10-09T03:44:30;21.70;;;11.48;;
20283;SDS011;10301;50.832;4.080;2023-10-09T03:47:01;21.92;;;11.82;;
20283;SDS011;10301;50.832;4.080;2023-10-09T03:49:27;20.60;;;11.85;;
20283;SDS011;10301;50.832;4.080;2023-10-09T03:51:54;21.27;;;12.15;;
20283;SDS011;10301;50.832;4.080;2023-10-09T03:54:20;23.08;;;12.20;;
20283;SDS011;10301;50.832;4.080;2023-10-09T03:56:47;21.15;;;12.05;;
20283;SDS011;10301;50.832;4.080;2023-10-09T03:59:15;22.30;;;12.70;;
20283;SDS011;10301;50.832;4.080;2023-10-09T04:01:47;21.40;;;11.75;;
20283;SDS011;10301;50.832;4.080;2023-10-09T04:04:17;19.42;;;11.35;;
20283;SDS011;10301;50.832;4.080;2023-10-09T04:06:47;20.75;;;12.15;;
20283;SDS011;10301;50.832;4.080;2023-10-09T04:09:13;22.08;;;12.73;;
20283;SDS011;10301;50.832;4.080;2023-10-09T04:11:48;22.55;;;12.52;;
20283;SDS011;10301;50.832;4.080;2023-10-09T04:14:25;20.38;;;12.55;;
20283;SDS011;10301;50.832;4.080;2023-10-09T04:17:00;20.50;;;11.15;;
20283;SDS011;10301;50.832;4.080;2023-10-09T04:19:51;21.30;;;13.05;;
20283;SDS011;10301;50.832;4.080;2023-10-09T04:22:39;20.92;;;12.77;;
20283;SDS011;10301;50.832;4.080;2023-10-09T04:25:35;22.33;;;12.70;;
20283;SDS011;10301;50.832;4.080;2023-10-09T04:28:07;23.77;;;13.27;;
20283;SDS011;10301;50.832;4.080;2023-10-09T04:30:35;25.92;;;13.07;;
20283;SDS011;10301;50.832;4.080;2023-10-09T04:33:14;19.48;;;11.98;;
20283;SDS011;10301;50.832;4.080;2023-10-09T04:36:02;24.20;;;12.93;;
20283;SDS011;10301;50.832;4.080;2023-10-09T04:38:43;21.35;;;13.05;;
20283;SDS011;10301;50.832;4.080;2023-10-09T04:41:21;20.08;;;13.40;;
20283;SDS011;10301;50.832;4.080;2023-10-09T04:43:53;21.42;;;13.45;;
20283;SDS011;10301;50.832;4.080;2023-10-09T04:46:39;23.63;;;12.82;;
20283;SDS011;10301;50.832;4.080;2023-10-09T04:49:12;20.38;;;12.57;;
20283;SDS011;10301;50.832;4.080;2023-10-09T04:51:52;22.85;;;13.88;;
20283;SDS011;10301;50.832;4.080;2023-10-09T04:54:32;21.52;;;12.68;;
20283;SDS011;10301;50.832;4.080;2023-10-09T04:57:26;25.08;;;13.70;;
20283;SDS011;10301;50.832;4.080;2023-10-09T04:59:52;24.02;;;14.32;;
20283;SDS011;10301;50.832;4.080;2023-10-09T05:02:19;24.00;;;14.85;;
20283;SDS011;10301;50.832;4.080;2023-10-09T05:04:47;23.75;;;13.68;;
20283;SDS011;10301;50.832;4.080;2023-10-09T05:07:26;29.13;;;14.65;;
20283;SDS011;10301;50.832;4.080;2023-10-09T05:10:11;22.13;;;13.23;;
20283;SDS011;10301;50.832;4.080;2023-10-09T05:12:42;25.77;;;13.98;;
20283;SDS011;10301;50.832;4.080;2023-10-09T05:15:24;22.35;;;13.05;;
20283;SDS011;10301;50.832;4.080;2023-10-09T05:17:54;20.83;;;13.35;;
20283;SDS011;10301;50.832;4.080;2023-10-09T05:20:27;23.02;;;14.25;;
20283;SDS011;10301;50.832;4.080;2023-10-09T05:22:53;24.38;;;13.20;;
20283;SDS011;10301;50.832;4.080;2023-10-09T05:25:38;23.95;;;13.70;;
20283;SDS011;10301;50.832;4.080;2023-10-09T05:28:20;23.65;;;13.95;;
20283;SDS011;10301;50.832;4.080;2023-10-09T05:31:13;24.63;;;13.93;;
20283;SDS011;10301;50.832;4.080;2023-10-09T05:33:58;28.33;;;13.30;;
20283;SDS011;10301;50.832;4.080;2023-10-09T05:36:26;23.15;;;14.02;;
20283;SDS011;10301;50.832;4.080;2023-10-09T05:38:52;22.55;;;13.80;;
20283;SDS011;10301;50.832;4.080;2023-10-09T05:41:27;24.00;;;14.40;;
20283;SDS011;10301;50.832;4.080;2023-10-09T05:44:31;27.42;;;15.07;;
20283;SDS011;10301;50.832;4.080;2023-10-09T05:47:15;36.85;;;18.35;;
20283;SDS011;10301;50.832;4.080;2023-10-09T05:49:59;25.08;;;13.65;;
20283;SDS011;10301;50.832;4.080;2023-10-09T05:52:33;22.75;;;15.27;;
20283;SDS011;10301;50.832;4.080;2023-10-09T05:55:06;21.60;;;14.30;;
20283;SDS011;10301;50.832;4.080;2023-10-09T05:57:50;23.75;;;14.57;;
20283;SDS011;10301;50.832;4.080;2023-10-09T06:00:38;25.25;;;14.88;;
20283;SDS011;10301;50.832;4.080;2023-10-09T06:03:22;26.15;;;15.45;;
20283;SDS011;10301;50.832;4.080;2023-10-09T06:05:51;31.00;;;15.95;;
20283;SDS011;10301;50.832;4.080;2023-10-09T06:08:22;27.52;;;15.82;;
20283;SDS011;10301;50.832;4.080;2023-10-09T06:11:07;27.23;;;16.50;;
20283;SDS011;10301;50.832;4.080;2023-10-09T06:13:52;24.98;;;15.63;;
20283;SDS011;10301;50.832;4.080;2023-10-09T06:16:39;26.55;;;15.02;;
20283;SDS011;10301;50.832;4.080;2023-10-09T06:19:07;29.52;;;15.98;;
20283;SDS011;10301;50.832;4.080;2023-10-09T06:21:40;26.42;;;15.30;;
20283;SDS011;10301;50.832;4.080;2023-10-09T06:24:25;28.15;;;15.57;;
20283;SDS011;10301;50.832;4.080;2023-10-09T06:26:58;26.55;;;15.85;;
20283;SDS011;10301;50.832;4.080;2023-10-09T06:29:27;28.70;;;15.75;;
20283;SDS011;10301;50.832;4.080;2023-10-09T06:32:03;25.60;;;15.85;;
20283;SDS011;10301;50.832;4.080;2023-10-09T06:34:59;31.08;;;16.35;;
20283;SDS011;10301;50.832;4.080;2023-10-09T06:37:45;27.60;;;15.80;;
20283;SDS011;10301;50.832;4.080;2023-10-09T06:40:27;26.83;;;15.98;;
20283;SDS011;10301;50.832;4.080;2023-10-09T06:43:16;26.90;;;16.17;;
20283;SDS011;10301;50.832;4.080;2023-10-09T06:45:42;27.13;;;15.88;;
20283;SDS011;10301;50.832;4.080;2023-10-09T06:48:09;29.42;;;16.60;;
20283;SDS011;10301;50.832;4.080;2023-10-09T06:50:56;26.15;;;15.70;;
20283;SDS011;10301;50.832;4.080;2023-10-09T06:53:34;25.67;;;15.93;;
20283;SDS011;10301;50.832;4.080;2023-10-09T06:56:27;24.90;;;15.98;;
20283;SDS011;10301;50.832;4.080;2023-10-09T06:58:56;25.30;;;15.55;;
20283;SDS011;10301;50.832;4.080;2023-10-09T07:01:45;30.50;;;16.80;;
20283;SDS011;10301;50.832;4.080;2023-10-09T07:04:16;27.02;;;16.33;;
20283;SDS011;10301;50.832;4.080;2023-10-09T07:06:45;31.15;;;16.98;;
20283;SDS011;10301;50.832;4.080;2023-10-09T07:09:12;26.75;;;16.65;;
20283;SDS011;10301;50.832;4.080;2023-10-09T07:11:39;25.25;;;15.93;;
20283;SDS011;10301;50.832;4.080;2023-10-09T07:14:11;28.40;;;16.65;;
20283;SDS011;10301;50.832;4.080;2023-10-09T07:17:02;27.90;;;17.15;;
20283;SDS011;10301;50.832;4.080;2023-10-09T07:19:41;26.55;;;16.70;;
20283;SDS011;10301;50.832;4.080;2023-10-09T07:22:07;27.30;;;17.10;;
20283;SDS011;10301;50.832;4.080;2023-10-09T07:24:55;29.77;;;16.98;;
20283;SDS011;10301;50.832;4.080;2023-10-09T07:27:21;33.38;;;17.25;;
20283;SDS011;10301;50.832;4.080;2023-10-09T07:30:06;27.08;;;16.98;;
20283;SDS011;10301;50.832;4.080;2023-10-09T07:32:53;31.20;;;17.33;;
20283;SDS011;10301;50.832;4.080;2023-10-09T07:35:35;29.33;;;17.30;;
20283;SDS011;10301;50.832;4.080;2023-10-09T07:38:05;31.83;;;18.42;;
20283;SDS011;10301;50.832;4.080;2023-10-09T07:40:37;28.70;;;18.67;;
20283;SDS011;10301;50.832;4.080;2023-10-09T07:43:26;30.10;;;18.10;;
20283;SDS011;10301;50.832;4.080;2023-10-09T07:46:09;31.88;;;17.95;;
20283;SDS011;10301;50.832;4.080;2023-10-09T07:48:58;26.58;;;17.45;;
20283;SDS011;10301;50.832;4.080;2023-10-09T07:51:33;28.05;;;17.83;;
20283;SDS011;10301;50.832;4.080;2023-10-09T07:54:03;26.20;;;17.33;;
20283;SDS011;10301;50.832;4.080;2023-10-09T07:56:39;30.83;;;17.50;;
20283;SDS011;10301;50.832;4.080;2023-10-09T07:59:07;25.40;;;16.45;;
20283;SDS011;10301;50.832;4.080;2023-10-09T08:01:57;27.85;;;16.90;;
20283;SDS011;10301;50.832;4.080;2023-10-09T08:04:27;24.20;;;16.92;;
20283;SDS011;10301;50.832;4.080;2023-10-09T08:07:09;28.77;;;17.55;;
20283;SDS011;10301;50.832;4.080;2023-10-09T08:09:50;28.77;;;17.38;;
20283;SDS011;10301;50.832;4.080;2023-10-09T08:12:37;29.58;;;16.58;;
20283;SDS011;10301;50.832;4.080;2023-10-09T08:15:15;26.40;;;16.73;;
20283;SDS011;10301;50.832;4.080;2023-10-09T08:17:44;25.55;;;17.23;;
20283;SDS011;10301;50.832;4.080;2023-10-09T08:20:20;27.95;;;16.35;;
20283;SDS011;10301;50.832;4.080;2023-10-09T08:22:51;27.77;;;16.95;;
20283;SDS011;10301;50.832;4.080;2023-10-09T08:25:20;28.20;;;17.35;;
20283;SDS011;10301;50.832;4.080;2023-10-09T08:27:54;28.63;;;16.83;;
20283;SDS011;10301;50.832;4.080;2023-10-09T08:30:22;30.73;;;18.75;;
20283;SDS011;10301;50.832;4.080;2023-10-09T08:32:52;30.17;;;17.65;;
20283;SDS011;10301;50.832;4.080;2023-10-09T08:35:56;24.80;;;15.32;;
20283;SDS011;10301;50.832;4.080;2023-10-09T08:38:29;25.27;;;17.20;;
20283;SDS011;10301;50.832;4.080;2023-10-09T08:41:11;28.65;;;16.95;;
20283;SDS011;10301;50.832;4.080;2023-10-09T08:43:49;28.60;;;16.52;;
20283;SDS011;10301;50.832;4.080;2023-10-09T08:46:23;25.10;;;16.95;;
20283;SDS011;10301;50.832;4.080;2023-10-09T08:48:54;26.05;;;17.08;;
20283;SDS011;10301;50.832;4.080;2023-10-09T08:51:27;28.27;;;16.15;;
20283;SDS011;10301;50.832;4.080;2023-10-09T08:53:54;24.65;;;16.70;;
20283;SDS011;10301;50.832;4.080;2023-10-09T08:56:21;25.80;;;16.45;;
20283;SDS011;10301;50.832;4.080;2023-10-09T08:58:48;24.60;;;16.25;;
20283;SDS011;10301;50.832;4.080;2023-10-09T09:01:17;31.73;;;17.10;;
20283;SDS011;10301;50.832;4.080;2023-10-09T09:03:47;33.47;;;17.83;;
20283;SDS011;10301;50.832;4.080;2023-10-09T09:06:15;28.23;;;17.15;;
20283;SDS011;10301;50.832;4.080;2023-10-09T09:08:46;26.13;;;18.10;;
20283;SDS011;10301;50.832;4.080;2023-10-09T09:11:15;29.65;;;18.52;;
20283;SDS011;10301;50.832;4.080;2023-10-09T09:16:28;32.75;;;17.92;;
20283;SDS011;10301;50.832;4.080;2023-10-09T09:21:35;26.45;;;16.75;;
20283;SDS011;10301;50.832;4.080;2023-10-09T09:24:06;27.55;;;17.00;;
20283;SDS011;10301;50.832;4.080;2023-10-09T09:26:41;26.52;;;18.08;;
20283;SDS011;10301;50.832;4.080;2023-10-09T09:29:12;28.85;;;18.00;;
20283;SDS011;10301;50.832;4.080;2023-10-09T09:31:55;26.58;;;16.70;;
20283;SDS011;10301;50.832;4.080;2023-10-09T09:34:44;30.63;;;17.27;;
20283;SDS011;10301;50.832;4.080;2023-10-09T09:37:21;27.48;;;17.05;;
20283;SDS011;10301;50.832;4.080;2023-10-09T09:39:54;29.65;;;17.08;;
20283;SDS011;10301;50.832;4.080;2023-10-09T09:42:23;24.70;;;17.33;;
20283;SDS011;10301;50.832;4.080;2023-10-09T09:44:50;25.38;;;17.05;;
20283;SDS011;10301;50.832;4.080;2023-10-09T09:47:17;29.20;;;17.40;;
20283;SDS011;10301;50.832;4.080;2023-10-09T09:49:51;26.65;;;16.58;;
20283;SDS011;10301;50.832;4.080;2023-10-09T09:52:18;24.63;;;15.48;;
20283;SDS011;10301;50.832;4.080;2023-10-09T09:54:44;27.50;;;17.67;;
20283;SDS011;10301;50.832;4.080;2023-10-09T09:57:14;26.73;;;15.38;;
20283;SDS011;10301;50.832;4.080;2023-10-09T09:59:51;24.60;;;16.13;;
20283;SDS011;10301;50.832;4.080;2023-10-09T10:02:25;28.42;;;17.02;;
20283;SDS011;10301;50.832;4.080;2023-10-09T10:04:58;23.67;;;15.32;;
20283;SDS011;10301;50.832;4.080;2023-10-09T10:07:29;26.15;;;16.40;;
20283;SDS011;10301;50.832;4.080;2023-10-09T10:10:05;23.23;;;15.57;;
20283;SDS011;10301;50.832;4.080;2023-10-09T10:12:58;24.80;;;16.15;;
20283;SDS011;10301;50.832;4.080;2023-10-09T10:18:23;27.58;;;16.75;;
20283;SDS011;10301;50.832;4.080;2023-10-09T10:24:01;27.73;;;17.00;;
20283;SDS011;10301;50.832;4.080;2023-10-09T10:26:36;25.05;;;14.75;;
20283;SDS011;10301;50.832;4.080;2023-10-09T10:31:59;23.65;;;16.55;;
20283;SDS011;10301;50.832;4.080;2023-10-09T10:37:37;25.90;;;16.95;;
20283;SDS011;10301;50.832;4.080;2023-10-09T10:40:25;30.23;;;16.85;;
20283;SDS011;10301;50.832;4.080;2023-10-09T10:43:06;26.73;;;17.02;;
20283;SDS011;10301;50.832;4.080;2023-10-09T10:46:15;28.25;;;16.23;;
20283;SDS011;10301;50.832;4.080;2023-10-09T10:49:05;28.20;;;16.25;;
20283;SDS011;10301;50.832;4.080;2023-10-09T10:51:54;39.03;;;16.42;;
20283;SDS011;10301;50.832;4.080;2023-10-09T10:54:27;27.50;;;15.73;;
20283;SDS011;10301;50.832;4.080;2023-10-09T10:56:56;29.27;;;17.63;;
20283;SDS011;10301;50.832;4.080;2023-10-09T10:59:23;26.25;;;16.58;;
20283;SDS011;10301;50.832;4.080;2023-10-09T11:01:50;26.52;;;16.63;;
20283;SDS011;10301;50.832;4.080;2023-10-09T11:04:26;34.17;;;15.52;;
20283;SDS011;10301;50.832;4.080;2023-10-09T11:06:59;26.45;;;14.75;;
20283;SDS011;10301;50.832;4.080;2023-10-09T11:09:47;25.23;;;14.60;;
20283;SDS011;10301;50.832;4.080;2023-10-09T11:12:28;25.05;;;14.52;;
20283;SDS011;10301;50.832;4.080;2023-10-09T11:15:34;28.20;;;14.93;;
20283;SDS011;10301;50.832;4.080;2023-10-09T11:18:12;25.10;;;15.15;;
20283;SDS011;10301;50.832;4.080;2023-10-09T11:20:45;23.27;;;13.80;;
20283;SDS011;10301;50.832;4.080;2023-10-09T11:23:32;20.95;;;14.10;;
20283;SDS011;10301;50.832;4.080;2023-10-09T11:25:58;22.02;;;13.93;;
20283;SDS011;10301;50.832;4.080;2023-10-09T11:28:43;22.33;;;13.40;;
20283;SDS011;10301;50.832;4.080;2023-10-09T11:31:22;23.25;;;14.45;;
20283;SDS011;10301;50.832;4.080;2023-10-09T11:33:48;22.77;;;13.48;;
20283;SDS011;10301;50.832;4.080;2023-10-09T11:36:19;20.75;;;13.48;;
20283;SDS011;10301;50.832;4.080;2023-10-09T11:38:56;22.38;;;13.63;;
20283;SDS011;10301;50.832;4.080;2023-10-09T11:41:42;23.20;;;14.35;;
20283;SDS011;10301;50.832;4.080;2023-10-09T11:44:09;23.10;;;13.77;;
20283;SDS011;10301;50.832;4.080;2023-10-09T11:46:59;21.92;;;13.30;;
20283;SDS011;10301;50.832;4.080;2023-10-09T11:50:01;25.30;;;14.48;;
20283;SDS011;10301;50.832;4.080;2023-10-09T11:52:57;26.15;;;14.10;;
20283;SDS011;10301;50.832;4.080;2023-10-09T11:55:42;20.23;;;12.98;;
20283;SDS011;10301;50.832;4.080;2023-10-09T11:58:15;22.27;;;14.13;;
20283;SDS011;10301;50.832;4.080;2023-10-09T12:00:53;22.92;;;13.82;;
20283;SDS011;10301;50.832;4.080;2023-10-09T12:03:30;22.73;;;13.73;;
20283;SDS011;10301;50.832;4.080;2023-10-09T12:05:57;19.60;;;12.82;;
20283;SDS011;10301;50.832;4.080;2023-10-09T12:08:29;20.90;;;13.15;;
20283;SDS011;10301;50.832;4.080;2023-10-09T12:10:55;21.20;;;12.90;;
20283;SDS011;10301;50.832;4.080;2023-10-09T12:13:21;20.88;;;12.63;;
20283;SDS011;10301;50.832;4.080;2023-10-09T12:15:48;22.15;;;13.55;;
20283;SDS011;10301;50.832;4.080;2023-10-09T12:18:17;20.52;;;13.68;;
20283;SDS011;10301;50.832;4.080;2023-10-09T12:20:44;23.10;;;13.43;;
20283;SDS011;10301;50.832;4.080;2023-10-09T12:23:15;23.50;;;14.25;;
20283;SDS011;10301;50.832;4.080;2023-10-09T12:25:45;19.50;;;13.75;;
20283;SDS011;10301;50.832;4.080;2023-10-09T12:28:13;23.35;;;13.77;;
20283;SDS011;10301;50.832;4.080;2023-10-09T12:30:39;22.30;;;14.07;;
20283;SDS011;10301;50.832;4.080;2023-10-09T12:33:06;25.05;;;14.82;;
20283;SDS011;10301;50.832;4.080;2023-10-09T12:35:39;22.85;;;13.88;;
20283;SDS011;10301;50.832;4.080;2023-10-09T12:38:06;22.88;;;13.90;;
20283;SDS011;10301;50.832;4.080;2023-10-09T12:40:36;18.98;;;13.73;;
20283;SDS011;10301;50.832;4.080;2023-10-09T12:43:03;22.30;;;14.50;;
20283;SDS011;10301;50.832;4.080;2023-10-09T12:45:28;23.98;;;15.00;;
20283;SDS011;10301;50.832;4.080;2023-10-09T12:47:58;19.73;;;13.43;;
20283;SDS011;10301;50.832;4.080;2023-10-09T12:50:25;22.95;;;14.20;;
20283;SDS011;10301;50.832;4.080;2023-10-09T12:52:57;18.73;;;13.25;;
20283;SDS011;10301;50.832;4.080;2023-10-09T12:55:37;20.33;;;14.30;;
20283;SDS011;10301;50.832;4.080;2023-10-09T12:58:07;22.10;;;14.57;;
20283;SDS011;10301;50.832;4.080;2023-10-09T13:00:35;21.38;;;14.23;;
20283;SDS011;10301;50.832;4.080;2023-10-09T13:03:09;23.70;;;14.35;;
20283;SDS011;10301;50.832;4.080;2023-10-09T13:05:44;24.98;;;14.52;;
20283;SDS011;10301;50.832;4.080;2023-10-09T13:08:38;23.85;;;13.95;;
20283;SDS011;10301;50.832;4.080;2023-10-09T13:11:06;22.27;;;14.38;;
20283;SDS011;10301;50.832;4.080;2023-10-09T13:13:40;23.35;;;14.10;;
20283;SDS011;10301;50.832;4.080;2023-10-09T13:16:10;23.20;;;14.15;;
20283;SDS011;10301;50.832;4.080;2023-10-09T13:18:53;21.10;;;14.05;;
20283;SDS011;10301;50.832;4.080;2023-10-09T13:21:19;25.23;;;14.55;;
20283;SDS011;10301;50.832;4.080;2023-10-09T13:23:47;22.73;;;14.20;;
20283;SDS011;10301;50.832;4.080;2023-10-09T13:26:15;23.15;;;14.07;;
20283;SDS011;10301;50.832;4.080;2023-10-09T13:28:47;29.00;;;14.10;;
20283;SDS011;10301;50.832;4.080;2023-10-09T13:31:14;24.63;;;14.10;;
20283;SDS011;10301;50.832;4.080;2023-10-09T13:33:42;25.55;;;13.98;;
20283;SDS011;10301;50.832;4.080;2023-10-09T13:36:12;27.40;;;14.63;;
20283;SDS011;10301;50.832;4.080;2023-10-09T13:38:51;22.00;;;14.48;;
20283;SDS011;10301;50.832;4.080;2023-10-09T13:41:21;24.58;;;13.77;;
20283;SDS011;10301;50.832;4.080;2023-10-09T13:43:47;22.92;;;13.75;;
20283;SDS011;10301;50.832;4.080;2023-10-09T13:46:16;22.38;;;12.82;;
20283;SDS011;10301;50.832;4.080;2023-10-09T13:48:43;20.85;;;12.77;;
20283;SDS011;10301;50.832;4.080;2023-10-09T13:51:10;20.67;;;13.43;;
20283;SDS011;10301;50.832;4.080;2023-10-09T13:53:42;22.52;;;12.95;;
20283;SDS011;10301;50.832;4.080;2023-10-09T13:56:15;22.45;;;12.93;;
20283;SDS011;10301;50.832;4.080;2023-10-09T13:58:48;20.10;;;12.77;;
20283;SDS011;10301;50.832;4.080;2023-10-09T14:01:16;22.10;;;12.77;;
20283;SDS011;10301;50.832;4.080;2023-10-09T14:03:59;20.40;;;12.88;;
20283;SDS011;10301;50.832;4.080;2023-10-09T14:06:25;19.25;;;13.02;;
20283;SDS011;10301;50.832;4.080;2023-10-09T14:08:58;20.85;;;12.50;;
20283;SDS011;10301;50.832;4.080;2023-10-09T14:11:29;23.33;;;13.68;;
20283;SDS011;10301;50.832;4.080;2023-10-09T14:13:55;22.20;;;12.32;;
20283;SDS011;10301;50.832;4.080;2023-10-09T14:16:21;18.75;;;12.57;;
20283;SDS011;10301;50.832;4.080;2023-10-09T14:18:53;20.38;;;11.57;;
20283;SDS011;10301;50.832;4.080;2023-10-09T14:21:23;19.75;;;11.57;;
20283;SDS011;10301;50.832;4.080;2023-10-09T14:23:51;20.27;;;12.85;;
20283;SDS011;10301;50.832;4.080;2023-10-09T14:26:22;22.15;;;12.65;;
20283;SDS011;10301;50.832;4.080;2023-10-09T14:28:54;20.98;;;12.95;;
20283;SDS011;10301;50.832;4.080;2023-10-09T14:31:24;19.27;;;12.77;;
20283;SDS011;10301;50.832;4.080;2023-10-09T14:33:57;24.55;;;13.07;;
20283;SDS011;10301;50.832;4.080;2023-10-09T14:36:22;21.60;;;13.10;;
20283;SDS011;10301;50.832;4.080;2023-10-09T14:38:50;21.25;;;12.70;;
20283;SDS011;10301;50.832;4.080;2023-10-09T14:41:20;24.13;;;12.18;;
20283;SDS011;10301;50.832;4.080;2023-10-09T14:43:50;21.20;;;12.45;;
20283;SDS011;10301;50.832;4.080;2023-10-09T14:46:17;22.08;;;12.35;;
20283;SDS011;10301;50.832;4.080;2023-10-09T14:48:54;19.67;;;12.13;;
20283;SDS011;10301;50.832;4.080;2023-10-09T14:51:21;19.60;;;11.63;;
20283;SDS011;10301;50.832;4.080;2023-10-09T14:53:58;14.68;;;10.57;;
20283;SDS011;10301;50.832;4.080;2023-10-09T14:56:29;21.00;;;11.23;;
20283;SDS011;10301;50.832;4.080;2023-10-09T14:58:56;19.60;;;11.98;;
20283;SDS011;10301;50.832;4.080;2023-10-09T15:01:23;20.83;;;11.93;;
20283;SDS011;10301;50.832;4.080;2023-10-09T15:03:50;17.85;;;12.13;;
20283;SDS011;10301;50.832;4.080;2023-10-09T15:06:20;19.95;;;11.23;;
20283;SDS011;10301;50.832;4.080;2023-10-09T15:08:46;19.00;;;12.75;;
20283;SDS011;10301;50.832;4.080;2023-10-09T15:11:12;21.33;;;11.32;;
20283;SDS011;10301;50.832;4.080;2023-10-09T15:13:40;22.20;;;11.25;;
20283;SDS011;10301;50.832;4.080;2023-10-09T15:16:05;20.15;;;11.20;;
20283;SDS011;10301;50.832;4.080;2023-10-09T15:18:31;20.75;;;11.02;;
20283;SDS011;10301;50.832;4.080;2023-10-09T15:21:02;18.77;;;10.15;;